Time;durP1;ratioP1;P1;durP2;ratioP2;P2;SDS_P1;SDS_P2;PMS_P1;PMS_P2;Temp;Humidity;BMP_temperature;BMP_pressure;BME280_temperature;BME280_humidity;BME280_pressure;Samples;Min_cycle;Max_cycle;Signal;HPM_P1;HPM_P2
2022/10/15 00:01:09;;;;;;;45.20;26.77;;;;;;;14.03;65.93;100128.25;4393300;32;33969;-81
2022/10/15 00:03:38;;;;;;;39.55;24.08;;;;;;;13.87;65.90;100128.50;4391531;32;34180;-80
2022/10/15 00:06:07;;;;;;;36.67;22.52;;;;;;;12.98;68.90;100133.78;4392910;32;34234;-80
2022/10/15 00:08:35;;;;;;;35.67;22.17;;;;;;;13.65;67.42;100140.75;4392934;32;33740;-81
2022/10/15 00:11:05;;;;;;;39.42;23.67;;;;;;;12.76;70.16;100135.47;4393472;32;33748;-81
2022/10/15 00:13:33;;;;;;;35.72;21.58;;;;;;;12.34;71.64;100127.69;4391409;32;33938;-80
2022/10/15 00:16:00;;;;;;;40.50;22.83;;;;;;;11.98;73.10;100134.75;4392103;32;34088;-80
2022/10/15 00:18:28;;;;;;;37.92;22.73;;;;;;;12.93;70.47;100132.69;4390115;32;33983;-81
2022/10/15 00:20:56;;;;;;;34.13;20.05;;;;;;;13.44;68.12;100138.22;4388283;32;33922;-81
2022/10/15 00:23:23;;;;;;;35.38;19.77;;;;;;;13.80;66.61;100127.41;4389860;32;33699;-81
2022/10/15 00:26:00;;;;;;;36.17;21.35;;;;;;;13.51;67.58;100137.62;4392918;32;33694;-81
2022/10/15 00:28:27;;;;;;;35.60;20.20;;;;;;;12.58;70.89;100138.22;4393391;32;34630;-81
2022/10/15 00:31:06;;;;;;;33.22;20.20;;;;;;;13.06;68.80;100132.37;4374238;32;33761;-81
2022/10/15 00:33:34;;;;;;;34.45;20.45;;;;;;;13.25;68.63;100138.28;4393484;32;33971;-81
2022/10/15 00:36:07;;;;;;;31.02;20.12;;;;;;;12.15;72.39;100131.19;4384971;32;34347;-80
2022/10/15 00:38:35;;;;;;;38.78;21.83;;;;;;;12.10;72.96;100126.62;4392620;32;33776;-81
2022/10/15 00:41:05;;;;;;;32.10;19.90;;;;;;;12.06;73.28;100124.72;4392220;32;33647;-80
2022/10/15 00:43:50;;;;;;;37.75;20.52;;;;;;;13.09;69.93;100123.78;4392787;32;33915;-81
2022/10/15 00:46:37;;;;;;;39.00;20.98;;;;;;;13.48;67.49;100119.31;4388491;32;33364;-81
2022/10/15 00:49:18;;;;;;;39.05;22.33;;;;;;;12.42;71.51;100119.31;4378355;32;34779;-81
2022/10/15 00:51:49;;;;;;;34.88;20.83;;;;;;;13.18;68.58;100112.03;4393022;32;33986;-81
2022/10/15 00:54:16;;;;;;;32.22;19.17;;;;;;;12.59;70.75;100102.72;4379448;32;34522;-81
2022/10/15 00:56:44;;;;;;;30.98;19.20;;;;;;;13.35;68.52;100104.06;4382914;32;33503;-81
2022/10/15 00:59:13;;;;;;;33.83;20.55;;;;;;;13.28;68.85;100108.09;4389023;32;33999;-81
2022/10/15 01:01:40;;;;;;;38.65;21.98;;;;;;;13.01;69.45;100110.50;4378212;32;33836;-81
2022/10/15 01:04:08;;;;;;;35.40;21.73;;;;;;;13.07;68.79;100108.13;4378899;32;34506;-81
2022/10/15 01:06:36;;;;;;;37.85;22.02;;;;;;;12.97;68.85;100100.78;4371871;32;33698;-81
2022/10/15 01:09:04;;;;;;;36.03;21.15;;;;;;;12.95;69.24;100099.84;4377697;32;33672;-81
2022/10/15 01:11:46;;;;;;;34.05;20.52;;;;;;;12.08;73.22;100097.09;4391474;32;33920;-81
2022/10/15 01:14:46;;;;;;;37.58;22.67;;;;;;;12.39;72.32;100097.56;4377993;32;33998;-81
2022/10/15 01:17:20;;;;;;;34.92;22.13;;;;;;;11.86;74.35;100097.81;4392371;32;34091;-81
2022/10/15 01:20:22;;;;;;;35.47;22.40;;;;;;;11.92;73.70;100098.16;4378902;32;34751;-81
2022/10/15 01:22:56;;;;;;;34.15;20.98;;;;;;;11.48;76.11;100102.19;4379576;32;33902;-81
2022/10/15 01:25:54;;;;;;;37.63;21.80;;;;;;;10.98;77.53;100099.00;4392314;32;33755;-81
2022/10/15 01:28:47;;;;;;;39.35;24.12;;;;;;;10.74;79.42;100102.19;4389244;32;33245;-81
2022/10/15 01:31:22;;;;;;;41.03;24.15;;;;;;;11.25;77.03;100103.72;4388522;32;33849;-81
2022/10/15 01:33:55;;;;;;;37.15;23.35;;;;;;;11.55;75.16;100101.63;4377883;32;34852;-80
2022/10/15 01:36:57;;;;;;;36.13;22.80;;;;;;;12.77;70.47;100093.09;4379145;32;33847;-81
2022/10/15 01:39:33;;;;;;;35.08;20.90;;;;;;;14.61;63.80;100082.50;4378651;32;34028;-81
2022/10/15 01:42:17;;;;;;;35.08;21.37;;;;;;;14.99;61.15;100079.34;4391179;32;34674;-81
2022/10/15 01:44:50;;;;;;;33.30;20.50;;;;;;;14.27;62.69;100083.94;4364405;32;33989;-81
2022/10/15 01:47:23;;;;;;;32.63;20.58;;;;;;;13.89;63.50;100082.62;4375452;32;34185;-81
2022/10/15 01:49:54;;;;;;;32.67;19.23;;;;;;;14.77;60.97;100083.00;4391370;32;33680;-81
2022/10/15 01:52:26;;;;;;;29.45;19.55;;;;;;;13.64;64.28;100086.06;4369867;32;34628;-81
2022/10/15 01:54:54;;;;;;;32.75;20.52;;;;;;;13.67;64.29;100086.12;4378467;32;34706;-81
2022/10/15 01:57:24;;;;;;;29.45;19.65;;;;;;;13.05;65.93;100088.97;4377847;32;33625;-81
2022/10/15 01:59:53;;;;;;;34.78;20.83;;;;;;;13.41;65.03;100078.25;4390956;32;33398;-80
2022/10/15 02:02:21;;;;;;;28.90;19.10;;;;;;;13.76;64.15;100086.47;4391808;32;33827;-81
2022/10/15 02:04:49;;;;;;;28.83;18.48;;;;;;;14.04;62.81;100085.78;4387116;32;34499;-81
2022/10/15 02:07:46;;;;;;;27.17;17.27;;;;;;;13.73;64.33;100086.34;4389185;32;34222;-81
2022/10/15 02:10:35;;;;;;;25.45;17.05;;;;;;;15.13;59.56;100088.50;4392245;32;33327;-81
2022/10/15 02:13:13;;;;;;;28.87;16.08;;;;;;;14.60;60.69;100095.50;4389472;32;34674;-81
2022/10/15 02:15:48;;;;;;;26.90;16.62;;;;;;;15.00;59.28;100083.75;4391285;32;33755;-81
2022/10/15 02:18:15;;;;;;;;;;;;;;;15.66;57.69;100080.50;4378056;32;33800;-81
2022/10/15 02:20:49;;;;;;;27.08;16.02;;;;;;;16.25;55.86;100088.25;4385150;32;33729;-82
2022/10/15 02:23:20;;;;;;;25.02;15.48;;;;;;;16.26;55.66;100080.47;4376939;32;33909;-81
2022/10/15 02:25:49;;;;;;;23.77;14.73;;;;;;;15.84;56.46;100081.06;4394614;32;34575;-81
2022/10/15 02:28:17;;;;;;;25.88;15.02;;;;;;;15.78;56.39;100080.00;4393912;32;34567;-81
2022/10/15 02:30:47;;;;;;;25.33;14.95;;;;;;;14.42;59.72;100087.91;4388898;32;33428;-81
2022/10/15 02:33:15;;;;;;;23.62;14.93;;;;;;;14.65;59.45;100076.56;4380117;32;31935;-81
2022/10/15 02:35:43;;;;;;;26.55;16.42;;;;;;;15.10;57.50;100073.66;4379985;32;33590;-81
2022/10/15 02:38:14;;;;;;;26.58;18.02;;;;;;;12.77;65.05;100081.81;4367216;32;33337;-81
2022/10/15 02:40:43;;;;;;;33.55;18.95;;;;;;;13.63;63.64;100068.63;4392530;32;33139;-81
2022/10/15 02:43:13;;;;;;;32.13;19.67;;;;;;;13.16;65.48;100077.28;4380121;32;34633;-82
2022/10/15 02:45:41;;;;;;;61.72;27.52;;;;;;;13.43;63.61;100062.72;4386960;32;33748;-81
2022/10/15 02:48:08;;;;;;;53.72;24.35;;;;;;;13.82;63.61;100065.00;4393404;32;33818;-82
2022/10/15 02:50:36;;;;;;;36.50;18.12;;;;;;;14.33;61.72;100068.53;4393813;32;33226;-81
2022/10/15 02:53:04;;;;;;;32.15;17.67;;;;;;;15.04;59.06;100063.00;4393338;32;34687;-81
2022/10/15 02:55:33;;;;;;;31.15;16.75;;;;;;;15.35;58.07;100066.53;4383180;32;34644;-81
2022/10/15 02:58:00;;;;;;;30.48;18.15;;;;;;;15.32;57.95;100056.03;4376168;32;33722;-81
2022/10/15 03:00:28;;;;;;;29.10;16.65;;;;;;;15.24;57.84;100065.34;4384884;32;33303;-81
2022/10/15 03:02:56;;;;;;;27.20;16.65;;;;;;;15.28;57.52;100056.78;4391931;32;33716;-82
2022/10/15 03:05:23;;;;;;;28.62;16.40;;;;;;;15.62;56.54;100057.75;4393488;32;33838;-81
2022/10/15 03:07:52;;;;;;;30.15;16.95;;;;;;;14.78;58.63;100054.37;4393606;32;33720;-80
2022/10/15 03:10:20;;;;;;;26.23;16.55;;;;;;;15.63;56.74;100043.87;4390273;32;33493;-82
2022/10/15 03:12:48;;;;;;;27.62;16.83;;;;;;;15.62;56.67;100040.34;4393602;32;34634;-81
2022/10/15 03:15:16;;;;;;;24.85;15.52;;;;;;;15.78;55.90;100046.94;4393574;32;33769;-81
2022/10/15 03:17:44;;;;;;;26.45;15.48;;;;;;;15.02;57.22;100048.16;4390147;32;33921;-81
2022/10/15 03:20:14;;;;;;;26.67;15.82;;;;;;;15.63;55.71;100049.97;4385602;32;33266;-81
2022/10/15 03:22:42;;;;;;;28.73;16.08;;;;;;;14.79;56.93;100047.44;4392787;32;33984;-81
2022/10/15 03:25:09;;;;;;;26.98;16.15;;;;;;;14.30;58.65;100050.19;4378446;32;33474;-81
2022/10/15 03:27:37;;;;;;;27.75;15.98;;;;;;;14.67;58.78;100046.19;4393677;32;34625;-81
2022/10/15 03:30:09;;;;;;;29.67;16.30;;;;;;;15.70;55.47;100035.34;4390977;32;34221;-81
2022/10/15 03:32:37;;;;;;;27.13;16.17;;;;;;;15.32;56.35;100043.84;4389914;32;34701;-81
2022/10/15 03:35:05;;;;;;;27.10;16.55;;;;;;;14.77;58.21;100056.94;4387934;32;33797;-81
2022/10/15 03:37:32;;;;;;;29.58;16.85;;;;;;;14.79;58.10;100055.25;4393772;32;33778;-81
2022/10/15 03:40:00;;;;;;;27.98;16.52;;;;;;;15.95;55.64;100054.34;4391612;32;33234;-81
2022/10/15 03:42:28;;;;;;;28.20;17.85;;;;;;;16.65;53.50;100053.53;4393080;32;33893;-81
2022/10/15 03:44:56;;;;;;;30.23;17.23;;;;;;;15.99;55.60;100053.56;4388014;32;34907;-81
2022/10/15 03:47:23;;;;;;;29.60;17.85;;;;;;;15.82;56.11;100051.41;4384601;32;34652;-81
2022/10/15 03:49:52;;;;;;;31.02;16.83;;;;;;;15.65;56.29;100053.50;4383479;32;34089;-81
2022/10/15 03:52:19;;;;;;;23.27;15.52;;;;;;;15.28;57.45;100051.56;4389988;32;34058;-79
2022/10/15 03:54:48;;;;;;;24.48;15.48;;;;;;;16.26;54.17;100059.56;4387171;32;33911;-81
2022/10/15 03:57:15;;;;;;;25.12;15.82;;;;;;;16.61;52.61;100067.41;4390884;32;33964;-81
2022/10/15 03:59:43;;;;;;;24.87;15.35;;;;;;;16.67;51.89;100061.44;4388179;32;33460;-81
2022/10/15 04:02:16;;;;;;;24.35;15.98;;;;;;;16.93;51.14;100059.44;4386525;32;33423;-81
2022/10/15 04:04:44;;;;;;;23.08;15.63;;;;;;;16.83;51.42;100060.97;4390783;32;33606;-81
2022/10/15 04:07:11;;;;;;;24.73;15.93;;;;;;;16.59;51.80;100048.16;4388744;32;33806;-81
2022/10/15 04:09:39;;;;;;;24.33;16.20;;;;;;;16.20;52.76;100046.28;4389257;32;33468;-81
2022/10/15 04:12:15;;;;;;;25.30;14.87;;;;;;;15.91;53.51;100041.19;4392412;32;33758;-81
2022/10/15 04:14:43;;;;;;;24.80;14.90;;;;;;;16.35;52.29;100042.31;4375074;32;33783;-81
2022/10/15 04:17:10;;;;;;;26.40;15.20;;;;;;;16.81;51.21;100040.84;4381077;32;32677;-81
2022/10/15 04:19:38;;;;;;;24.37;15.02;;;;;;;17.15;49.92;100044.22;4385447;32;33511;-81
2022/10/15 04:22:05;;;;;;;25.33;15.52;;;;;;;16.55;51.67;100045.41;4391695;32;34268;-81
2022/10/15 04:24:34;;;;;;;26.87;15.85;;;;;;;14.41;56.28;100047.03;4387092;32;33949;-81
2022/10/15 04:27:01;;;;;;;25.52;15.05;;;;;;;15.06;55.24;100040.47;4382808;32;34657;-81
2022/10/15 04:29:29;;;;;;;23.20;15.13;;;;;;;15.04;55.12;100054.31;4372815;32;33678;-81
2022/10/15 04:32:05;;;;;;;25.98;15.10;;;;;;;15.63;53.43;100051.69;4383005;32;33950;-81
2022/10/15 04:34:33;;;;;;;24.85;15.50;;;;;;;14.82;55.82;100060.59;4389280;32;33673;-81
2022/10/15 04:37:01;;;;;;;26.23;15.07;;;;;;;13.76;59.05;100060.44;4390228;32;33706;-81
2022/10/15 04:39:29;;;;;;;26.12;15.48;;;;;;;15.45;53.93;100059.88;4388599;32;33198;-81
2022/10/15 04:41:57;;;;;;;24.73;15.23;;;;;;;14.49;56.39;100066.44;4393126;32;33940;-81
2022/10/15 04:44:25;;;;;;;27.05;15.90;;;;;;;15.50;53.65;100064.37;4386554;32;33574;-81
2022/10/15 04:46:53;;;;;;;28.27;15.70;;;;;;;15.57;53.78;100056.72;4391789;32;34751;-81
2022/10/15 04:49:21;;;;;;;26.20;15.75;;;;;;;15.96;52.80;100064.84;4384975;32;33667;-81
2022/10/15 04:51:49;;;;;;;24.27;14.87;;;;;;;15.76;53.58;100051.25;4392338;32;34666;-81
2022/10/15 04:54:17;;;;;;;25.95;15.35;;;;;;;16.34;51.68;100061.44;4378720;32;32339;-81
2022/10/15 04:56:46;;;;;;;25.27;15.63;;;;;;;16.67;50.53;100046.63;4386792;32;34125;-81
2022/10/15 04:59:13;;;;;;;29.33;16.65;;;;;;;15.37;54.03;100050.94;4384318;32;33618;-81
2022/10/15 05:01:43;;;;;;;25.83;16.40;;;;;;;15.21;54.91;100057.44;4384717;32;33232;-80
2022/10/15 05:04:11;;;;;;;30.90;16.58;;;;;;;14.79;56.68;100060.47;4392538;32;34366;-80
2022/10/15 05:06:39;;;;;;;28.52;15.63;;;;;;;13.77;59.30;100068.31;4392524;32;34858;-80
2022/10/15 05:09:07;;;;;;;30.37;17.42;;;;;;;14.77;56.73;100067.37;4383615;32;33596;-81
2022/10/15 05:11:37;;;;;;;30.10;17.25;;;;;;;14.54;57.16;100064.84;4393293;32;33887;-80
2022/10/15 05:14:08;;;;;;;30.23;17.90;;;;;;;15.00;56.48;100055.06;4393088;32;33866;-81
2022/10/15 05:16:37;;;;;;;29.70;17.50;;;;;;;15.82;54.13;100056.63;4392547;32;33856;-81
2022/10/15 05:19:06;;;;;;;28.73;16.37;;;;;;;15.88;53.97;100062.00;4384664;32;33604;-81
2022/10/15 05:21:34;;;;;;;29.05;17.00;;;;;;;16.70;51.45;100067.59;4389591;32;33949;-81
2022/10/15 05:24:02;;;;;;;25.65;15.95;;;;;;;16.59;51.61;100069.09;4390997;32;34570;-81
2022/10/15 05:26:33;;;;;;;26.00;15.55;;;;;;;16.96;50.50;100070.00;4386405;32;33967;-81
2022/10/15 05:29:01;;;;;;;25.17;15.93;;;;;;;16.80;50.60;100075.66;4390304;32;34182;-81
2022/10/15 05:31:31;;;;;;;26.67;15.75;;;;;;;16.60;50.99;100072.59;4390659;32;34018;-81
2022/10/15 05:34:05;;;;;;;24.80;14.32;;;;;;;16.91;50.01;100066.38;4390918;32;34765;-81
2022/10/15 05:36:34;;;;;;;25.65;15.02;;;;;;;16.08;52.10;100054.69;4390592;32;34032;-81
2022/10/15 05:39:03;;;;;;;25.50;14.18;;;;;;;15.64;53.30;100059.56;4391894;32;33971;-80
2022/10/15 05:41:33;;;;;;;23.70;14.80;;;;;;;15.28;54.61;100056.78;4377186;32;33938;-82
2022/10/15 05:44:01;;;;;;;25.08;15.27;;;;;;;16.23;51.99;100049.00;4389493;32;34458;-80
2022/10/15 05:46:29;;;;;;;29.70;15.38;;;;;;;15.40;54.45;100056.25;4392082;32;33548;-81
2022/10/15 05:48:57;;;;;;;27.00;15.95;;;;;;;15.72;53.70;100054.53;4393990;32;33527;-81
2022/10/15 05:51:26;;;;;;;30.25;16.67;;;;;;;16.10;52.96;100057.37;4395167;32;33929;-81
2022/10/15 05:53:56;;;;;;;29.60;16.65;;;;;;;15.69;54.25;100064.94;4385557;32;32237;-81
2022/10/15 05:56:24;;;;;;;29.55;17.67;;;;;;;15.44;55.31;100069.44;4393320;32;34645;-80
2022/10/15 05:58:51;;;;;;;28.70;17.02;;;;;;;16.02;53.97;100064.13;4390623;32;34250;-82
2022/10/15 06:01:21;;;;;;;29.55;16.85;;;;;;;16.28;53.31;100068.31;4391215;32;33723;-81
2022/10/15 06:03:51;;;;;;;32.67;17.77;;;;;;;16.39;53.23;100059.84;4389658;32;33967;-81
2022/10/15 06:06:19;;;;;;;32.92;17.50;;;;;;;16.44;53.27;100063.47;4390869;32;33794;-81
2022/10/15 06:08:47;;;;;;;38.58;18.75;;;;;;;16.51;53.11;100071.50;4393252;32;33397;-80
2022/10/15 06:11:15;;;;;;;28.08;17.90;;;;;;;16.45;53.33;100070.47;4391637;32;33688;-81
2022/10/15 06:13:43;;;;;;;33.67;18.35;;;;;;;16.76;52.71;100086.91;4393748;32;33925;-81
2022/10/15 06:16:12;;;;;;;37.53;18.80;;;;;;;16.49;53.88;100085.38;4391692;32;33819;-80
2022/10/15 06:18:43;;;;;;;32.05;19.08;;;;;;;16.89;53.50;100094.25;4387106;32;34049;-81
2022/10/15 06:21:11;;;;;;;35.47;19.25;;;;;;;16.52;55.72;100088.97;4393240;32;33403;-81
2022/10/15 06:23:38;;;;;;;31.58;19.92;;;;;;;17.10;54.81;100094.75;4394005;32;33701;-82
2022/10/15 06:26:08;;;;;;;31.62;20.58;;;;;;;17.00;55.47;100098.00;4391954;32;33488;-80
2022/10/15 06:28:36;;;;;;;32.95;19.27;;;;;;;16.43;57.81;100098.28;4389220;32;34204;-81
2022/10/15 06:31:04;;;;;;;31.60;18.05;;;;;;;17.20;56.13;100097.56;4391517;32;34383;-81
2022/10/15 06:33:33;;;;;;;30.90;19.60;;;;;;;17.21;56.46;100096.72;4395258;32;33612;-81
2022/10/15 06:36:02;;;;;;;32.53;18.85;;;;;;;17.07;57.23;100099.94;4394537;32;33877;-81
2022/10/15 06:38:29;;;;;;;31.77;19.67;;;;;;;16.69;58.50;100097.22;4393653;32;33245;-81
2022/10/15 06:40:57;;;;;;;30.98;18.10;;;;;;;16.63;59.10;100099.69;4391369;32;33885;-80
2022/10/15 06:43:25;;;;;;;36.38;19.20;;;;;;;16.56;59.26;100100.38;4374648;32;32427;-84
2022/10/15 06:45:58;;;;;;;33.35;17.67;;;;;;;16.95;58.43;100104.84;4390020;32;33875;-83
2022/10/15 06:48:26;;;;;;;28.73;17.98;;;;;;;17.16;58.39;100114.94;4394001;32;34500;-82
2022/10/15 06:50:53;;;;;;;31.80;17.95;;;;;;;17.63;57.24;100101.13;4392639;32;33825;-83
2022/10/15 06:53:21;;;;;;;32.22;18.48;;;;;;;17.63;57.71;100111.59;4392929;32;33882;-82
2022/10/15 06:55:49;;;;;;;28.48;17.37;;;;;;;17.76;57.40;100116.25;4393612;32;33922;-82
2022/10/15 06:58:16;;;;;;;27.73;17.12;;;;;;;17.62;57.96;100109.84;4391610;32;34132;-82
2022/10/15 07:00:44;;;;;;;26.73;16.70;;;;;;;18.23;56.43;100116.34;4385346;32;33924;-80
2022/10/15 07:03:11;;;;;;;30.95;17.45;;;;;;;17.80;57.88;100125.94;4390861;32;33708;-81
2022/10/15 07:05:39;;;;;;;31.52;18.23;;;;;;;17.83;58.09;100126.00;4391697;32;33494;-81
2022/10/15 07:08:06;;;;;;;31.08;18.42;;;;;;;18.11;57.27;100133.56;4391954;32;33849;-81
2022/10/15 07:10:34;;;;;;;27.85;17.30;;;;;;;17.12;60.39;100133.16;4390455;32;33813;-81
2022/10/15 07:13:01;;;;;;;28.38;17.67;;;;;;;17.95;58.06;100129.78;4389104;32;34505;-81
2022/10/15 07:15:29;;;;;;;24.90;15.70;;;;;;;18.26;57.57;100126.88;4391159;32;34629;-80
2022/10/15 07:18:00;;;;;;;23.85;15.00;;;;;;;18.36;56.95;100127.94;4386650;32;33508;-80
2022/10/15 07:20:28;;;;;;;24.98;14.70;;;;;;;17.68;58.81;100125.69;4391899;32;32439;-80
2022/10/15 07:22:59;;;;;;;23.98;15.30;;;;;;;18.22;57.45;100119.81;4393620;32;33995;-80
2022/10/15 07:25:28;;;;;;;22.30;14.18;;;;;;;17.62;59.29;100125.56;4400283;32;33923;-80
2022/10/15 07:27:56;;;;;;;26.50;14.87;;;;;;;18.26;57.03;100121.63;4377514;32;32414;-82
2022/10/15 07:30:27;;;;;;;28.23;15.90;;;;;;;18.56;56.07;100114.28;4391156;32;34774;-81
2022/10/15 07:32:56;;;;;;;28.50;14.93;;;;;;;18.76;55.60;100114.66;4392470;32;33880;-81
2022/10/15 07:35:25;;;;;;;26.90;15.35;;;;;;;18.82;55.86;100109.53;4391791;32;34299;-80
2022/10/15 07:37:52;;;;;;;25.40;14.63;;;;;;;18.04;58.09;100108.97;4388243;32;33659;-80
2022/10/15 07:40:19;;;;;;;22.90;13.95;;;;;;;18.14;57.50;100110.94;4393096;32;33942;-82
2022/10/15 07:42:54;;;;;;;25.45;14.63;;;;;;;18.61;55.76;100115.25;4393670;32;33765;-80
2022/10/15 07:45:23;;;;;;;23.87;13.77;;;;;;;19.23;54.29;100111.91;4389830;32;33656;-81
2022/10/15 07:47:51;;;;;;;23.42;13.95;;;;;;;18.58;56.07;100110.84;4388113;32;33623;-82
2022/10/15 07:50:20;;;;;;;22.60;14.40;;;;;;;18.82;55.86;100117.41;4379545;32;33913;-82
2022/10/15 07:52:47;;;;;;;22.67;13.85;;;;;;;20.29;52.09;100112.38;4400242;32;33961;-80
2022/10/15 07:55:15;;;;;;;25.83;13.75;;;;;;;19.78;53.53;100110.06;4393687;32;34420;-79
2022/10/15 07:57:42;;;;;;;25.52;13.35;;;;;;;20.29;52.38;100115.00;4392305;32;33483;-79
2022/10/15 12:57:51;;;;;;;14.98;5.82;;;;;;;19.40;52.18;100007.94;4505547;31;142519;-78
2022/10/15 13:00:22;;;;;;;17.77;5.97;;;;;;;19.40;52.18;100007.94;4494351;31;33176;-79
2022/10/15 13:02:51;;;;;;;10.23;5.32;;;;;;;19.35;50.77;100004.38;4487549;31;33548;-80
2022/10/15 13:05:31;;;;;;;13.70;5.93;;;;;;;19.67;49.57;100008.25;4485517;31;33845;-80
2022/10/15 13:08:01;;;;;;;9.40;5.15;;;;;;;20.10;49.08;100011.34;4486894;32;32916;-78
2022/10/15 13:10:33;;;;;;;9.63;4.60;;;;;;;20.20;48.25;100016.72;4491992;31;33329;-79
2022/10/15 13:13:06;;;;;;;8.45;5.15;;;;;;;19.86;48.74;100017.22;4496959;31;34083;-72
2022/10/15 13:15:34;;;;;;;12.80;4.93;;;;;;;20.28;49.45;100023.78;4488998;31;34022;-78
2022/10/15 13:18:11;;;;;;;145.93;15.10;;;;;;;20.49;48.54;100023.94;4495261;31;32868;-79
2022/10/15 13:20:41;;;;;;;32.97;6.85;;;;;;;20.97;47.54;100017.31;4489715;32;34381;-77
2022/10/15 13:23:16;;;;;;;8.70;4.85;;;;;;;20.70;47.46;100025.03;4486589;32;34124;-78
2022/10/15 13:26:15;;;;;;;9.07;5.10;;;;;;;21.04;46.40;100017.38;4512493;31;34086;-77
2022/10/15 13:28:43;;;;;;;10.15;4.53;;;;;;;20.92;47.39;100021.69;4497198;31;33603;-78
2022/10/15 13:31:14;;;;;;;9.00;4.50;;;;;;;21.16;46.30;100018.28;4492940;31;33047;-78
2022/10/15 13:33:43;;;;;;;11.68;4.78;;;;;;;20.89;45.98;100016.37;4495872;31;33030;-78
2022/10/15 13:36:23;;;;;;;12.80;4.68;;;;;;;21.19;46.29;100012.19;4503169;31;33778;-80
2022/10/15 13:38:53;;;;;;;7.45;4.60;;;;;;;20.88;46.06;100014.63;4495618;31;34292;-79
2022/10/15 13:41:25;;;;;;;8.27;4.07;;;;;;;21.02;46.57;100018.22;4489364;32;33369;-77
2022/10/15 13:43:57;;;;;;;9.85;4.47;;;;;;;20.93;46.71;100017.28;4500484;31;33937;-77
2022/10/15 13:46:31;;;;;;;6.20;4.25;;;;;;;20.70;46.83;100025.91;4505348;31;33829;-80
2022/10/15 13:49:08;;;;;;;9.80;4.45;;;;;;;21.19;45.87;100017.44;4492763;31;33756;-80
2022/10/15 13:51:41;;;;;;;13.13;4.70;;;;;;;20.82;47.30;100025.09;4497952;31;33348;-80
2022/10/15 13:54:29;;;;;;;7.70;4.82;;;;;;;21.01;47.49;100027.00;4488173;31;33815;-80
2022/10/15 13:57:00;;;;;;;7.80;4.47;;;;;;;21.36;45.97;100018.41;4497790;31;34598;-78
2022/10/15 13:59:29;;;;;;;11.25;4.05;;;;;;;21.23;45.67;100021.84;4498474;31;32782;-77
2022/10/15 14:02:03;;;;;;;11.38;4.78;;;;;;;20.98;46.96;100021.72;4494793;31;33289;-77
2022/10/15 14:04:32;;;;;;;13.88;4.80;;;;;;;21.21;46.83;100026.25;4489093;31;33982;-78
2022/10/15 14:07:02;;;;;;;25.30;5.60;;;;;;;21.24;46.87;100010.44;4490455;31;34388;-78
2022/10/15 14:09:37;;;;;;;23.10;5.75;;;;;;;21.17;46.61;100016.53;4475155;31;33773;-77
2022/10/15 14:12:06;;;;;;;12.77;4.72;;;;;;;21.09;46.82;100007.72;4474271;31;31778;-77
2022/10/15 14:14:46;;;;;;;10.18;4.45;;;;;;;20.97;47.22;100016.44;4475066;31;34788;-75
2022/10/15 14:17:22;;;;;;;8.40;4.37;;;;;;;20.87;47.53;100012.00;4489153;31;33704;-78
2022/10/15 14:19:54;;;;;;;9.88;4.60;;;;;;;21.13;47.18;100009.50;4476417;31;33904;-76
2022/10/15 14:22:41;;;;;;;9.15;4.62;;;;;;;20.84;48.33;100002.31;4485378;31;34102;-78
2022/10/15 14:25:09;;;;;;;8.07;4.68;;;;;;;20.94;47.88;100014.69;4474596;32;34978;-76
2022/10/15 14:27:44;;;;;;;9.40;4.80;;;;;;;20.65;48.92;100010.94;4478169;31;33838;-76
2022/10/15 14:30:14;;;;;;;9.18;4.45;;;;;;;20.79;49.02;100004.03;4483540;32;33778;-77
2022/10/15 14:32:47;;;;;;;17.37;5.97;;;;;;;20.51;49.96;100013.44;4472147;31;33369;-77
2022/10/15 14:35:30;;;;;;;12.73;6.72;;;;;;;20.43;49.42;100000.22;4498747;31;34706;-80
2022/10/15 14:38:04;;;;;;;14.63;6.40;;;;;;;20.62;48.87;99999.53;4492173;31;34860;-78
2022/10/15 14:40:32;;;;;;;16.05;7.10;;;;;;;20.32;49.51;99991.38;4490189;31;33630;-77
2022/10/15 14:43:05;;;;;;;11.73;7.07;;;;;;;20.65;48.81;100000.41;4475147;31;33822;-77
2022/10/15 14:45:54;;;;;;;10.30;6.87;;;;;;;20.62;48.42;99986.37;4482747;31;33865;-79
2022/10/15 14:48:24;;;;;;;11.77;5.80;;;;;;;20.80;48.01;99990.91;4467797;32;33436;-77
2022/10/15 14:50:57;;;;;;;11.43;7.15;;;;;;;20.58;50.25;100000.34;4479936;31;34027;-77
2022/10/15 14:53:27;;;;;;;14.45;6.87;;;;;;;20.70;48.25;99996.94;4483979;31;33566;-77
2022/10/15 14:56:00;;;;;;;14.52;8.68;;;;;;;20.31;49.11;100006.28;4500338;31;33233;-79
2022/10/15 14:58:28;;;;;;;12.90;7.43;;;;;;;20.37;48.76;100003.69;4493544;31;34760;-77
2022/10/15 15:00:58;;;;;;;12.43;7.68;;;;;;;20.29;48.78;100001.88;4475015;31;34486;-77
2022/10/15 15:03:28;;;;;;;13.27;6.80;;;;;;;20.33;48.87;100008.94;4479352;32;32864;-78
2022/10/15 15:05:57;;;;;;;17.48;7.37;;;;;;;20.36;48.89;100008.97;4501633;31;34873;-77
2022/10/15 15:08:25;;;;;;;13.02;7.10;;;;;;;20.17;49.50;100002.66;4486785;31;34540;-77
2022/10/15 15:10:55;;;;;;;14.40;6.87;;;;;;;20.15;49.48;100005.28;4495802;31;34356;-78
2022/10/15 15:13:24;;;;;;;13.13;6.80;;;;;;;20.30;49.01;99999.28;4475584;31;35422;-78
2022/10/15 15:15:51;;;;;;;13.05;6.35;;;;;;;20.38;48.88;100007.22;4483587;31;34276;-75
2022/10/15 15:18:19;;;;;;;12.90;6.45;;;;;;;20.15;49.54;100025.44;4491941;31;33568;-75
2022/10/15 15:20:49;;;;;;;17.95;6.75;;;;;;;20.15;49.67;100015.78;4500377;31;33519;-75
2022/10/15 15:23:22;;;;;;;12.40;6.70;;;;;;;19.95;49.95;100022.59;4475956;31;33486;-75
2022/10/15 15:25:50;;;;;;;10.07;6.57;;;;;;;19.98;50.00;100027.91;4487570;31;33850;-75
2022/10/15 15:28:21;;;;;;;13.13;7.47;;;;;;;20.10;49.59;100022.75;4487398;31;32739;-76
2022/10/15 15:30:57;;;;;;;14.75;8.80;;;;;;;19.91;50.00;100018.16;4482272;31;34317;-76
2022/10/15 15:33:26;;;;;;;17.85;11.50;;;;;;;19.86;50.17;100019.84;4470146;32;34181;-77
2022/10/15 15:35:58;;;;;;;18.48;12.77;;;;;;;19.76;50.55;100021.50;4471075;31;34058;-77
2022/10/15 15:38:32;;;;;;;18.37;12.27;;;;;;;19.60;51.21;100023.06;4474943;31;34716;-77
2022/10/15 15:41:10;;;;;;;17.05;12.35;;;;;;;19.81;50.87;100025.09;4482522;31;34015;-76
2022/10/15 15:43:38;;;;;;;22.23;10.93;;;;;;;19.68;51.54;100023.16;4496468;31;33641;-77
2022/10/15 15:46:05;;;;;;;14.10;8.90;;;;;;;19.50;52.50;100029.06;4479960;31;34033;-76
2022/10/15 15:48:33;;;;;;;14.57;8.35;;;;;;;19.65;52.13;100031.88;4482401;31;34705;-77
2022/10/15 15:51:03;;;;;;;11.57;7.25;;;;;;;19.59;52.53;100029.19;4472782;31;33697;-77
2022/10/15 15:53:31;;;;;;;12.88;7.47;;;;;;;19.62;52.21;100034.47;4478157;31;33166;-76
2022/10/15 15:55:58;;;;;;;17.50;8.30;;;;;;;19.66;51.69;100036.25;4499688;31;33418;-77
2022/10/15 15:58:26;;;;;;;18.23;10.15;;;;;;;19.73;51.82;100038.13;4486796;31;34544;-77
2022/10/15 16:00:53;;;;;;;12.55;8.30;;;;;;;19.59;52.87;100034.44;4486635;31;33478;-77
2022/10/15 16:03:21;;;;;;;11.02;7.45;;;;;;;19.59;52.50;100039.72;4476671;31;34235;-77
2022/10/15 16:05:50;;;;;;;11.38;7.22;;;;;;;19.50;52.48;100029.06;4492206;31;33384;-76
2022/10/15 16:08:22;;;;;;;13.60;7.18;;;;;;;19.40;52.75;100049.97;4487488;31;34750;-77
2022/10/15 16:10:50;;;;;;;11.05;6.78;;;;;;;19.56;51.93;100044.91;4481339;31;34661;-75
2022/10/15 16:13:17;;;;;;;12.90;9.05;;;;;;;19.28;52.71;100047.19;4480858;31;32476;-78
2022/10/15 16:15:45;;;;;;;18.60;9.75;;;;;;;19.21;53.12;100047.97;4483368;31;34043;-74
2022/10/15 16:18:12;;;;;;;19.30;13.32;;;;;;;19.26;53.18;100046.28;4474173;31;34345;-74
2022/10/15 16:20:41;;;;;;;21.42;13.70;;;;;;;19.54;52.60;100049.25;4475332;31;34338;-75
2022/10/15 16:23:15;;;;;;;15.00;9.02;;;;;;;19.31;53.33;100060.34;4482103;31;33509;-76
2022/10/15 16:25:42;;;;;;;15.02;8.82;;;;;;;19.26;53.83;100056.81;4496351;31;33941;-75